sensor_id;sensor_type;location;lat;lon;timestamp;pressure;altitude;pressure_sealevel;temperature;humidity
62703;BME280;66022;50.448;18.122;2023-11-21T00:01:54;98378.44;;;8.55;100.00
62703;BME280;66022;50.448;18.122;2023-11-21T00:06:22;98380.38;;;8.55;100.00
62703;BME280;66022;50.448;18.122;2023-11-21T00:10:49;98382.36;;;8.55;100.00
62703;BME280;66022;50.448;18.122;2023-11-21T00:15:17;98383.74;;;8.54;100.00
62703;BME280;66022;50.448;18.122;2023-11-21T00:19:46;98385.14;;;8.52;100.00
62703;BME280;66022;50.448;18.122;2023-11-21T00:24:13;98387.95;;;8.51;100.00
62703;BME280;66022;50.448;18.122;2023-11-21T00:28:41;98391.64;;;8.47;100.00
62703;BME280;66022;50.448;18.122;2023-11-21T00:33:09;98395.94;;;8.46;100.00
62703;BME280;66022;50.448;18.122;2023-11-21T00:37:38;98400.53;;;8.43;100.00
62703;BME280;66022;50.448;18.122;2023-11-21T00:42:06;98404.24;;;8.42;100.00
62703;BME280;66022;50.448;18.122;2023-11-21T00:46:35;98407.17;;;8.38;100.00
62703;BME280;66022;50.448;18.122;2023-11-21T00:51:02;98409.05;;;8.37;100.00
62703;BME280;66022;50.448;18.122;2023-11-21T00:55:30;98410.44;;;8.35;100.00
62703;BME280;66022;50.448;18.122;2023-11-21T00:59:57;98409.94;;;8.32;100.00
62703;BME280;66022;50.448;18.122;2023-11-21T01:04:25;98410.24;;;8.30;100.00
62703;BME280;66022;50.448;18.122;2023-11-21T01:08:53;98410.67;;;8.26;100.00
62703;BME280;66022;50.448;18.122;2023-11-21T01:13:23;98409.92;;;8.26;100.00
62703;BME280;66022;50.448;18.122;2023-11-21T01:17:49;98410.07;;;8.23;100.00
62703;BME280;66022;50.448;18.122;2023-11-21T01:22:17;98410.02;;;8.23;100.00
62703;BME280;66022;50.448;18.122;2023-11-21T01:26:46;98409.42;;;8.20;100.00
62703;BME280;66022;50.448;18.122;2023-11-21T01:31:13;98409.77;;;8.19;100.00
62703;BME280;66022;50.448;18.122;2023-11-21T01:35:41;98410.31;;;8.17;100.00
62703;BME280;66022;50.448;18.122;2023-11-21T01:40:10;98410.39;;;8.15;100.00
62703;BME280;66022;50.448;18.122;2023-11-21T01:44:37;98411.77;;;8.13;100.00
62703;BME280;66022;50.448;18.122;2023-11-21T01:49:05;98413.44;;;8.10;100.00
62703;BME280;66022;50.448;18.122;2023-11-21T01:53:33;98413.39;;;8.09;100.00
62703;BME280;66022;50.448;18.122;2023-11-21T01:58:01;98413.34;;;8.07;100.00
62703;BME280;66022;50.448;18.122;2023-11-21T02:02:29;98412.66;;;8.07;100.00
62703;BME280;66022;50.448;18.122;2023-11-21T02:06:57;98412.08;;;8.04;100.00
62703;BME280;66022;50.448;18.122;2023-11-21T02:11:27;98412.55;;;8.05;100.00
62703;BME280;66022;50.448;18.122;2023-11-21T02:15:56;98413.43;;;8.07;100.00
62703;BME280;66022;50.448;18.122;2023-11-21T02:20:21;98414.20;;;8.10;100.00
62703;BME280;66022;50.448;18.122;2023-11-21T02:24:49;98414.98;;;8.12;100.00
62703;BME280;66022;50.448;18.122;2023-11-21T02:29:18;98414.15;;;8.11;100.00
62703;BME280;66022;50.448;18.122;2023-11-21T02:33:45;98413.87;;;8.12;100.00
62703;BME280;66022;50.448;18.122;2023-11-21T02:38:13;98415.00;;;8.11;100.00
62703;BME280;66022;50.448;18.122;2023-11-21T02:42:41;98417.92;;;8.12;100.00
62703;BME280;66022;50.448;18.122;2023-11-21T02:47:11;98421.41;;;8.09;100.00
62703;BME280;66022;50.448;18.122;2023-11-21T02:51:37;98425.36;;;8.09;100.00
62703;BME280;66022;50.448;18.122;2023-11-21T02:56:06;98429.53;;;8.08;100.00
62703;BME280;66022;50.448;18.122;2023-11-21T03:00:33;98432.90;;;8.08;100.00
62703;BME280;66022;50.448;18.122;2023-11-21T03:05:02;98435.75;;;8.07;100.00
62703;BME280;66022;50.448;18.122;2023-11-21T03:09:29;98440.84;;;8.05;100.00
62703;BME280;66022;50.448;18.122;2023-11-21T03:13:57;98445.00;;;8.06;100.00
62703;BME280;66022;50.448;18.122;2023-11-21T03:18:25;98447.19;;;8.05;100.00
62703;BME280;66022;50.448;18.122;2023-11-21T03:22:53;98448.03;;;8.05;100.00
62703;BME280;66022;50.448;18.122;2023-11-21T03:27:21;98449.16;;;8.03;100.00
62703;BME280;66022;50.448;18.122;2023-11-21T03:31:49;98450.34;;;8.03;100.00
62703;BME280;66022;50.448;18.122;2023-11-21T03:36:17;98452.67;;;8.00;100.00
62703;BME280;66022;50.448;18.122;2023-11-21T03:40:45;98453.20;;;7.99;100.00
62703;BME280;66022;50.448;18.122;2023-11-21T03:45:14;98453.57;;;7.97;100.00
62703;BME280;66022;50.448;18.122;2023-11-21T03:49:42;98454.61;;;7.96;100.00
62703;BME280;66022;50.448;18.122;2023-11-21T03:54:09;98454.55;;;7.96;100.00
62703;BME280;66022;50.448;18.122;2023-11-21T03:58:37;98454.30;;;7.95;100.00
62703;BME280;66022;50.448;18.122;2023-11-21T04:03:05;98452.50;;;7.97;100.00
62703;BME280;66022;50.448;18.122;2023-11-21T04:07:36;98451.58;;;7.97;100.00
62703;BME280;66022;50.448;18.122;2023-11-21T04:12:01;98449.47;;;7.98;100.00
62703;BME280;66022;50.448;18.122;2023-11-21T04:16:29;98448.49;;;7.97;100.00
62703;BME280;66022;50.448;18.122;2023-11-21T04:20:57;98449.02;;;7.99;100.00
62703;BME280;66022;50.448;18.122;2023-11-21T04:25:25;98450.09;;;8.00;100.00
62703;BME280;66022;50.448;18.122;2023-11-21T04:29:53;98451.67;;;8.00;100.00
62703;BME280;66022;50.448;18.122;2023-11-21T04:34:27;98453.39;;;8.01;100.00
62703;BME280;66022;50.448;18.122;2023-11-21T04:38:51;98453.94;;;8.00;100.00
62703;BME280;66022;50.448;18.122;2023-11-21T04:43:17;98454.82;;;8.05;100.00
62703;BME280;66022;50.448;18.122;2023-11-21T04:47:46;98456.45;;;8.10;100.00
62703;BME280;66022;50.448;18.122;2023-11-21T04:52:13;98459.59;;;8.15;100.00
62703;BME280;66022;50.448;18.122;2023-11-21T04:56:41;98464.70;;;8.15;100.00
62703;BME280;66022;50.448;18.122;2023-11-21T05:01:09;98470.17;;;8.17;100.00
62703;BME280;66022;50.448;18.122;2023-11-21T05:05:37;98476.34;;;8.17;100.00
62703;BME280;66022;50.448;18.122;2023-11-21T05:10:06;98482.56;;;8.17;100.00
62703;BME280;66022;50.448;18.122;2023-11-21T05:14:33;98485.75;;;8.16;100.00
62703;BME280;66022;50.448;18.122;2023-11-21T05:19:01;98488.87;;;8.12;100.00
62703;BME280;66022;50.448;18.122;2023-11-21T05:23:29;98490.47;;;8.11;100.00
62703;BME280;66022;50.448;18.122;2023-11-21T05:27:57;98491.50;;;8.10;100.00
62703;BME280;66022;50.448;18.122;2023-11-21T05:32:26;98491.93;;;8.10;100.00
62703;BME280;66022;50.448;18.122;2023-11-21T05:36:55;98493.77;;;8.06;100.00
62703;BME280;66022;50.448;18.122;2023-11-21T05:41:22;98495.61;;;8.06;100.00
62703;BME280;66022;50.448;18.122;2023-11-21T05:45:50;98498.66;;;8.05;100.00
62703;BME280;66022;50.448;18.122;2023-11-21T05:50:17;98503.38;;;8.04;100.00
62703;BME280;66022;50.448;18.122;2023-11-21T05:54:46;98508.23;;;8.03;100.00
62703;BME280;66022;50.448;18.122;2023-11-21T05:59:13;98514.00;;;8.00;100.00
62703;BME280;66022;50.448;18.122;2023-11-21T06:03:41;98518.44;;;8.00;100.00
62703;BME280;66022;50.448;18.122;2023-11-21T06:08:10;98522.63;;;7.99;100.00
62703;BME280;66022;50.448;18.122;2023-11-21T06:12:38;98525.07;;;7.98;100.00
62703;BME280;66022;50.448;18.122;2023-11-21T06:17:06;98527.39;;;7.96;100.00
62703;BME280;66022;50.448;18.122;2023-11-21T06:21:34;98530.16;;;7.96;100.00
62703;BME280;66022;50.448;18.122;2023-11-21T06:26:03;98533.15;;;7.95;100.00
62703;BME280;66022;50.448;18.122;2023-11-21T06:30:30;98536.36;;;7.95;100.00
62703;BME280;66022;50.448;18.122;2023-11-21T06:34:58;98538.89;;;7.94;100.00
62703;BME280;66022;50.448;18.122;2023-11-21T06:39:26;98540.69;;;7.93;100.00
62703;BME280;66022;50.448;18.122;2023-11-21T06:43:54;98542.77;;;7.93;100.00
62703;BME280;66022;50.448;18.122;2023-11-21T06:48:22;98544.80;;;7.92;100.00
62703;BME280;66022;50.448;18.122;2023-11-21T06:52:50;98548.53;;;7.93;100.00
62703;BME280;66022;50.448;18.122;2023-11-21T06:57:18;98553.69;;;7.94;100.00
62703;BME280;66022;50.448;18.122;2023-11-21T07:01:46;98556.23;;;7.96;100.00
62703;BME280;66022;50.448;18.122;2023-11-21T07:06:14;98558.25;;;7.99;100.00
62703;BME280;66022;50.448;18.122;2023-11-21T07:10:42;98560.52;;;8.03;100.00
62703;BME280;66022;50.448;18.122;2023-11-21T07:15:10;98563.34;;;8.08;100.00
62703;BME280;66022;50.448;18.122;2023-11-21T07:19:38;98565.99;;;8.12;100.00
62703;BME280;66022;50.448;18.122;2023-11-21T07:24:06;98570.00;;;8.16;100.00
62703;BME280;66022;50.448;18.122;2023-11-21T07:28:34;98574.77;;;8.17;100.00
62703;BME280;66022;50.448;18.122;2023-11-21T07:33:02;98577.66;;;8.18;100.00
62703;BME280;66022;50.448;18.122;2023-11-21T07:37:30;98580.83;;;8.18;100.00
62703;BME280;66022;50.448;18.122;2023-11-21T07:41:58;98584.49;;;8.19;100.00
62703;BME280;66022;50.448;18.122;2023-11-21T07:46:26;98587.52;;;8.18;100.00
62703;BME280;66022;50.448;18.122;2023-11-21T07:50:54;98591.00;;;8.20;100.00
62703;BME280;66022;50.448;18.122;2023-11-21T07:55:22;98594.92;;;8.21;100.00
62703;BME280;66022;50.448;18.122;2023-11-21T07:59:50;98598.08;;;8.21;100.00
62703;BME280;66022;50.448;18.122;2023-11-21T08:04:18;98600.05;;;8.23;100.00
62703;BME280;66022;50.448;18.122;2023-11-21T08:08:46;98600.51;;;8.32;100.00
62703;BME280;66022;50.448;18.122;2023-11-21T08:13:14;98601.65;;;8.41;100.00
62703;BME280;66022;50.448;18.122;2023-11-21T08:17:42;98603.05;;;8.50;100.00
62703;BME280;66022;50.448;18.122;2023-11-21T08:22:10;98603.91;;;8.69;100.00
62703;BME280;66022;50.448;18.122;2023-11-21T08:26:38;98604.18;;;8.85;100.00
62703;BME280;66022;50.448;18.122;2023-11-21T08:31:06;98604.21;;;9.03;100.00
62703;BME280;66022;50.448;18.122;2023-11-21T08:35:34;98605.25;;;9.18;100.00
62703;BME280;66022;50.448;18.122;2023-11-21T08:40:02;98606.66;;;9.31;100.00
62703;BME280;66022;50.448;18.122;2023-11-21T08:44:30;98608.34;;;9.42;100.00
62703;BME280;66022;50.448;18.122;2023-11-21T08:49:02;98610.19;;;9.48;100.00
62703;BME280;66022;50.448;18.122;2023-11-21T08:53:27;98612.72;;;9.56;100.00
62703;BME280;66022;50.448;18.122;2023-11-21T08:57:55;98614.69;;;9.61;100.00
62703;BME280;66022;50.448;18.122;2023-11-21T09:02:23;98617.03;;;9.66;100.00
62703;BME280;66022;50.448;18.122;2023-11-21T09:06:51;98619.37;;;9.67;100.00
62703;BME280;66022;50.448;18.122;2023-11-21T09:11:19;98621.59;;;9.71;100.00
62703;BME280;66022;50.448;18.122;2023-11-21T09:15:47;98623.13;;;9.74;100.00
62703;BME280;66022;50.448;18.122;2023-11-21T09:20:19;98625.05;;;9.79;100.00
62703;BME280;66022;50.448;18.122;2023-11-21T09:24:49;98625.98;;;9.86;100.00
62703;BME280;66022;50.448;18.122;2023-11-21T09:29:11;98628.03;;;9.93;100.00
62703;BME280;66022;50.448;18.122;2023-11-21T09:33:39;98628.42;;;10.04;100.00
62703;BME280;66022;50.448;18.122;2023-11-21T09:38:07;98628.96;;;10.11;100.00
62703;BME280;66022;50.448;18.122;2023-11-21T09:42:36;98627.83;;;10.18;100.00
62703;BME280;66022;50.448;18.122;2023-11-21T09:47:03;98627.53;;;10.22;100.00
62703;BME280;66022;50.448;18.122;2023-11-21T09:51:31;98627.00;;;10.29;100.00
62703;BME280;66022;50.448;18.122;2023-11-21T09:55:59;98626.54;;;10.34;100.00
62703;BME280;66022;50.448;18.122;2023-11-21T10:00:27;98626.29;;;10.39;100.00
62703;BME280;66022;50.448;18.122;2023-11-21T10:04:55;98625.36;;;10.45;100.00
62703;BME280;66022;50.448;18.122;2023-11-21T10:09:23;98623.19;;;10.47;100.00
62703;BME280;66022;50.448;18.122;2023-11-21T10:13:52;98622.43;;;10.52;100.00
62703;BME280;66022;50.448;18.122;2023-11-21T10:18:19;98621.19;;;10.55;100.00
62703;BME280;66022;50.448;18.122;2023-11-21T10:22:47;98621.12;;;10.56;100.00
62703;BME280;66022;50.448;18.122;2023-11-21T10:27:15;98621.18;;;10.52;100.00
62703;BME280;66022;50.448;18.122;2023-11-21T10:31:43;98622.19;;;10.50;100.00
62703;BME280;66022;50.448;18.122;2023-11-21T10:36:11;98623.17;;;10.48;100.00
62703;BME280;66022;50.448;18.122;2023-11-21T10:40:39;98624.03;;;10.47;100.00
62703;BME280;66022;50.448;18.122;2023-11-21T10:45:08;98626.58;;;10.49;100.00
62703;BME280;66022;50.448;18.122;2023-11-21T10:49:35;98627.98;;;10.49;100.00
62703;BME280;66022;50.448;18.122;2023-11-21T10:54:03;98629.71;;;10.51;100.00
62703;BME280;66022;50.448;18.122;2023-11-21T10:58:31;98630.95;;;10.52;100.00
62703;BME280;66022;50.448;18.122;2023-11-21T11:02:59;98631.33;;;10.52;100.00
62703;BME280;66022;50.448;18.122;2023-11-21T11:07:27;98630.83;;;10.50;100.00
62703;BME280;66022;50.448;18.122;2023-11-21T11:11:55;98631.26;;;10.50;100.00
62703;BME280;66022;50.448;18.122;2023-11-21T11:16:23;98631.59;;;10.47;100.00
62703;BME280;66022;50.448;18.122;2023-11-21T11:20:51;98631.98;;;10.45;100.00
62703;BME280;66022;50.448;18.122;2023-11-21T11:38:45;98633.80;;;10.24;100.00
62703;BME280;66022;50.448;18.122;2023-11-21T11:43:11;98634.69;;;10.19;100.00
62703;BME280;66022;50.448;18.122;2023-11-21T11:47:39;98635.39;;;10.13;100.00
62703;BME280;66022;50.448;18.122;2023-11-21T11:56:35;98639.34;;;9.98;100.00
62703;BME280;66022;50.448;18.122;2023-11-21T12:01:06;98640.87;;;9.92;100.00
62703;BME280;66022;50.448;18.122;2023-11-21T12:05:31;98642.50;;;9.86;100.00
62703;BME280;66022;50.448;18.122;2023-11-21T12:09:59;98642.81;;;9.78;100.00
62703;BME280;66022;50.448;18.122;2023-11-21T12:14:27;98642.64;;;9.72;100.00
62703;BME280;66022;50.448;18.122;2023-11-21T12:18:55;98643.41;;;9.63;100.00
62703;BME280;66022;50.448;18.122;2023-11-21T12:23:28;98645.01;;;9.59;100.00
62703;BME280;66022;50.448;18.122;2023-11-21T12:27:51;98645.67;;;9.57;100.00
62703;BME280;66022;50.448;18.122;2023-11-21T12:32:19;98646.53;;;9.56;100.00
62703;BME280;66022;50.448;18.122;2023-11-21T12:36:47;98645.19;;;9.49;100.00
62703;BME280;66022;50.448;18.122;2023-11-21T12:41:15;98643.83;;;9.47;100.00
62703;BME280;66022;50.448;18.122;2023-11-21T12:45:43;98643.17;;;9.44;100.00
62703;BME280;66022;50.448;18.122;2023-11-21T12:50:11;98642.85;;;9.40;100.00
62703;BME280;66022;50.448;18.122;2023-11-21T12:54:39;98642.47;;;9.36;100.00
62703;BME280;66022;50.448;18.122;2023-11-21T12:59:07;98642.58;;;9.28;100.00
62703;BME280;66022;50.448;18.122;2023-11-21T13:03:35;98644.13;;;9.24;100.00
62703;BME280;66022;50.448;18.122;2023-11-21T13:08:03;98645.54;;;9.18;100.00
62703;BME280;66022;50.448;18.122;2023-11-21T13:12:31;98646.76;;;9.13;100.00
62703;BME280;66022;50.448;18.122;2023-11-21T13:16:59;98649.69;;;9.06;100.00
62703;BME280;66022;50.448;18.122;2023-11-21T13:21:28;98653.39;;;9.02;100.00
62703;BME280;66022;50.448;18.122;2023-11-21T13:25:55;98658.61;;;8.99;100.00
62703;BME280;66022;50.448;18.122;2023-11-21T13:30:23;98663.00;;;8.94;100.00
62703;BME280;66022;50.448;18.122;2023-11-21T13:34:51;98667.18;;;8.91;100.00
62703;BME280;66022;50.448;18.122;2023-11-21T13:39:19;98671.74;;;8.87;100.00
62703;BME280;66022;50.448;18.122;2023-11-21T13:43:47;98676.97;;;8.85;100.00
62703;BME280;66022;50.448;18.122;2023-11-21T13:48:15;98681.23;;;8.81;100.00
62703;BME280;66022;50.448;18.122;2023-11-21T13:52:44;98685.24;;;8.79;100.00
62703;BME280;66022;50.448;18.122;2023-11-21T13:57:11;98689.79;;;8.75;100.00
62703;BME280;66022;50.448;18.122;2023-11-21T14:01:39;98693.26;;;8.72;100.00
62703;BME280;66022;50.448;18.122;2023-11-21T14:06:07;98698.55;;;8.69;100.00
62703;BME280;66022;50.448;18.122;2023-11-21T14:10:35;98703.13;;;8.66;100.00
62703;BME280;66022;50.448;18.122;2023-11-21T14:15:03;98708.21;;;8.63;100.00
62703;BME280;66022;50.448;18.122;2023-11-21T14:19:37;98712.75;;;8.60;100.00
62703;BME280;66022;50.448;18.122;2023-11-21T14:24:05;98717.77;;;8.59;100.00
62703;BME280;66022;50.448;18.122;2023-11-21T14:28:27;98722.19;;;8.61;100.00
62703;BME280;66022;50.448;18.122;2023-11-21T14:32:55;98726.97;;;8.63;100.00
62703;BME280;66022;50.448;18.122;2023-11-21T14:37:23;98730.45;;;8.62;100.00
62703;BME280;66022;50.448;18.122;2023-11-21T14:41:51;98733.56;;;8.62;100.00
62703;BME280;66022;50.448;18.122;2023-11-21T14:46:19;98736.45;;;8.59;100.00
62703;BME280;66022;50.448;18.122;2023-11-21T14:50:47;98740.55;;;8.56;100.00
62703;BME280;66022;50.448;18.122;2023-11-21T14:55:15;98743.80;;;8.52;100.00
62703;BME280;66022;50.448;18.122;2023-11-21T14:59:46;98746.80;;;8.46;100.00
62703;BME280;66022;50.448;18.122;2023-11-21T15:04:11;98750.41;;;8.40;100.00
62703;BME280;66022;50.448;18.122;2023-11-21T15:08:39;98753.36;;;8.32;100.00
62703;BME280;66022;50.448;18.122;2023-11-21T15:13:07;98756.09;;;8.24;100.00
62703;BME280;66022;50.448;18.122;2023-11-21T15:17:35;98760.17;;;8.13;100.00
62703;BME280;66022;50.448;18.122;2023-11-21T15:22:03;98763.76;;;8.05;100.00
62703;BME280;66022;50.448;18.122;2023-11-21T15:26:31;98769.33;;;7.94;100.00
62703;BME280;66022;50.448;18.122;2023-11-21T15:30:59;98773.38;;;7.84;100.00
62703;BME280;66022;50.448;18.122;2023-11-21T15:35:27;98778.69;;;7.73;100.00
62703;BME280;66022;50.448;18.122;2023-11-21T15:39:55;98783.31;;;7.63;100.00
62703;BME280;66022;50.448;18.122;2023-11-21T15:44:23;98787.23;;;7.53;100.00
62703;BME280;66022;50.448;18.122;2023-11-21T15:48:51;98793.41;;;7.40;100.00
62703;BME280;66022;50.448;18.122;2023-11-21T15:53:19;98799.91;;;7.29;100.00
62703;BME280;66022;50.448;18.122;2023-11-21T15:57:47;98807.06;;;7.17;100.00
62703;BME280;66022;50.448;18.122;2023-11-21T16:02:15;98813.23;;;7.07;100.00
62703;BME280;66022;50.448;18.122;2023-11-21T16:09:35;98852.75;;;6.43;100.00
62703;BME280;66022;50.448;18.122;2023-11-21T16:13:49;98854.00;;;6.43;100.00
62703;BME280;66022;50.448;18.122;2023-11-21T16:18:03;98856.39;;;6.38;100.00
62703;BME280;66022;50.448;18.122;2023-11-21T16:22:17;98858.67;;;6.36;100.00
62703;BME280;66022;50.448;18.122;2023-11-21T16:26:31;98861.49;;;6.31;100.00
62703;BME280;66022;50.448;18.122;2023-11-21T16:30:45;98863.98;;;6.25;100.00
62703;BME280;66022;50.448;18.122;2023-11-21T16:34:59;98867.10;;;6.21;100.00
62703;BME280;66022;50.448;18.122;2023-11-21T16:39:13;98870.19;;;6.14;100.00
62703;BME280;66022;50.448;18.122;2023-11-21T16:43:27;98874.99;;;6.09;100.00
62703;BME280;66022;50.448;18.122;2023-11-21T16:47:44;98880.66;;;6.01;100.00
62703;BME280;66022;50.448;18.122;2023-11-21T16:51:55;98887.37;;;5.96;100.00
62703;BME280;66022;50.448;18.122;2023-11-21T16:56:09;98896.08;;;5.91;100.00
62703;BME280;66022;50.448;18.122;2023-11-21T17:00:26;98905.55;;;5.84;100.00
62703;BME280;66022;50.448;18.122;2023-11-21T17:04:37;98914.49;;;5.80;100.00
62703;BME280;66022;50.448;18.122;2023-11-21T17:08:51;98923.05;;;5.74;100.00
62703;BME280;66022;50.448;18.122;2023-11-21T17:13:05;98930.77;;;5.69;100.00
62703;BME280;66022;50.448;18.122;2023-11-21T17:17:19;98938.70;;;5.65;100.00
62703;BME280;66022;50.448;18.122;2023-11-21T17:21:33;98946.59;;;5.61;100.00
62703;BME280;66022;50.448;18.122;2023-11-21T17:25:49;98953.59;;;5.57;100.00
62703;BME280;66022;50.448;18.122;2023-11-21T17:30:01;98961.31;;;5.51;100.00
62703;BME280;66022;50.448;18.122;2023-11-21T17:34:15;98968.50;;;5.49;100.00
62703;BME280;66022;50.448;18.122;2023-11-21T17:38:29;98974.27;;;5.43;100.00
62703;BME280;66022;50.448;18.122;2023-11-21T17:42:43;98980.39;;;5.39;100.00
62703;BME280;66022;50.448;18.122;2023-11-21T17:46:57;98986.67;;;5.32;100.00
62703;BME280;66022;50.448;18.122;2023-11-21T17:51:11;98992.55;;;5.24;100.00
62703;BME280;66022;50.448;18.122;2023-11-21T17:55:25;98997.49;;;5.17;100.00
62703;BME280;66022;50.448;18.122;2023-11-21T17:59:39;99003.54;;;5.09;100.00
62703;BME280;66022;50.448;18.122;2023-11-21T18:03:53;99008.97;;;5.02;100.00
62703;BME280;66022;50.448;18.122;2023-11-21T18:08:07;99015.49;;;4.91;100.00
62703;BME280;66022;50.448;18.122;2023-11-21T18:12:21;99020.76;;;4.85;100.00
62703;BME280;66022;50.448;18.122;2023-11-21T18:16:35;99025.69;;;4.78;100.00
62703;BME280;66022;50.448;18.122;2023-11-21T18:20:49;99030.20;;;4.71;100.00
62703;BME280;66022;50.448;18.122;2023-11-21T18:25:04;99035.44;;;4.67;100.00
62703;BME280;66022;50.448;18.122;2023-11-21T18:29:17;99040.88;;;4.62;100.00
62703;BME280;66022;50.448;18.122;2023-11-21T18:33:31;99045.95;;;4.60;100.00
62703;BME280;66022;50.448;18.122;2023-11-21T18:37:45;99052.04;;;4.53;100.00
62703;BME280;66022;50.448;18.122;2023-11-21T18:41:59;99058.78;;;4.49;100.00
62703;BME280;66022;50.448;18.122;2023-11-21T18:46:13;99064.36;;;4.44;100.00
62703;BME280;66022;50.448;18.122;2023-11-21T18:50:27;99071.27;;;4.36;100.00
62703;BME280;66022;50.448;18.122;2023-11-21T18:54:41;99080.27;;;4.30;100.00
62703;BME280;66022;50.448;18.122;2023-11-21T18:58:55;99087.41;;;4.23;100.00
62703;BME280;66022;50.448;18.122;2023-11-21T19:03:09;99094.70;;;4.18;100.00
62703;BME280;66022;50.448;18.122;2023-11-21T19:07:23;99101.44;;;4.13;100.00
62703;BME280;66022;50.448;18.122;2023-11-21T19:11:37;99109.18;;;4.08;100.00
62703;BME280;66022;50.448;18.122;2023-11-21T19:15:51;99117.39;;;4.03;100.00
62703;BME280;66022;50.448;18.122;2023-11-21T19:20:09;99125.68;;;3.96;100.00
62703;BME280;66022;50.448;18.122;2023-11-21T19:24:22;99133.18;;;3.95;100.00
62703;BME280;66022;50.448;18.122;2023-11-21T19:28:33;99140.41;;;3.92;100.00
62703;BME280;66022;50.448;18.122;2023-11-21T19:32:47;99147.55;;;3.91;100.00
62703;BME280;66022;50.448;18.122;2023-11-21T19:37:01;99154.35;;;3.88;100.00
62703;BME280;66022;50.448;18.122;2023-11-21T19:41:15;99160.64;;;3.83;100.00
62703;BME280;66022;50.448;18.122;2023-11-21T19:45:29;99166.78;;;3.78;100.00
62703;BME280;66022;50.448;18.122;2023-11-21T19:49:48;99172.56;;;3.71;100.00
62703;BME280;66022;50.448;18.122;2023-11-21T19:53:57;99179.30;;;3.68;100.00
62703;BME280;66022;50.448;18.122;2023-11-21T19:58:11;99186.65;;;3.59;100.00
62703;BME280;66022;50.448;18.122;2023-11-21T20:02:28;99193.76;;;3.54;100.00
62703;BME280;66022;50.448;18.122;2023-11-21T20:06:40;99201.05;;;3.48;100.00
62703;BME280;66022;50.448;18.122;2023-11-21T20:10:53;99209.16;;;3.40;100.00
62703;BME280;66022;50.448;18.122;2023-11-21T20:15:07;99216.42;;;3.34;100.00
62703;BME280;66022;50.448;18.122;2023-11-21T20:19:21;99224.00;;;3.28;100.00
62703;BME280;66022;50.448;18.122;2023-11-21T20:23:35;99231.55;;;3.24;100.00
62703;BME280;66022;50.448;18.122;2023-11-21T20:27:52;99238.94;;;3.15;100.00
62703;BME280;66022;50.448;18.122;2023-11-21T20:32:04;99246.48;;;3.10;100.00
62703;BME280;66022;50.448;18.122;2023-11-21T20:36:19;99252.91;;;3.06;100.00
62703;BME280;66022;50.448;18.122;2023-11-21T20:40:31;99258.92;;;2.99;100.00
62703;BME280;66022;50.448;18.122;2023-11-21T20:44:45;99265.53;;;2.96;100.00
62703;BME280;66022;50.448;18.122;2023-11-21T20:48:59;99271.73;;;2.91;100.00
62703;BME280;66022;50.448;18.122;2023-11-21T20:53:14;99278.08;;;2.88;100.00
62703;BME280;66022;50.448;18.122;2023-11-21T20:57:28;99284.34;;;2.84;100.00
62703;BME280;66022;50.448;18.122;2023-11-21T21:01:41;99291.12;;;2.81;100.00
62703;BME280;66022;50.448;18.122;2023-11-21T21:05:55;99299.21;;;2.77;100.00
62703;BME280;66022;50.448;18.122;2023-11-21T21:10:10;99306.19;;;2.70;100.00
62703;BME280;66022;50.448;18.122;2023-11-21T21:14:23;99312.89;;;2.67;100.00
62703;BME280;66022;50.448;18.122;2023-11-21T21:18:37;99320.54;;;2.61;100.00
62703;BME280;66022;50.448;18.122;2023-11-21T21:22:51;99328.74;;;2.59;100.00
62703;BME280;66022;50.448;18.122;2023-11-21T21:27:05;99336.74;;;2.57;100.00
62703;BME280;66022;50.448;18.122;2023-11-21T21:31:20;99343.69;;;2.54;100.00
62703;BME280;66022;50.448;18.122;2023-11-21T21:35:33;99349.89;;;2.52;100.00
62703;BME280;66022;50.448;18.122;2023-11-21T21:39:47;99355.13;;;2.47;100.00
62703;BME280;66022;50.448;18.122;2023-11-21T21:44:01;99359.67;;;2.44;100.00
62703;BME280;66022;50.448;18.122;2023-11-21T21:48:17;99363.48;;;2.37;100.00
62703;BME280;66022;50.448;18.122;2023-11-21T21:52:33;99366.41;;;2.33;100.00
62703;BME280;66022;50.448;18.122;2023-11-21T21:56:43;99369.94;;;2.29;100.00
62703;BME280;66022;50.448;18.122;2023-11-21T22:00:57;99375.85;;;2.26;100.00
62703;BME280;66022;50.448;18.122;2023-11-21T22:05:14;99380.80;;;2.24;100.00
62703;BME280;66022;50.448;18.122;2023-11-21T22:09:25;99384.31;;;2.21;100.00
62703;BME280;66022;50.448;18.122;2023-11-21T22:13:39;99386.69;;;2.19;100.00
62703;BME280;66022;50.448;18.122;2023-11-21T22:17:53;99389.54;;;2.16;100.00
62703;BME280;66022;50.448;18.122;2023-11-21T22:22:07;99393.77;;;2.16;100.00
62703;BME280;66022;50.448;18.122;2023-11-21T22:26:26;99399.27;;;2.16;100.00
62703;BME280;66022;50.448;18.122;2023-11-21T22:30:35;99404.27;;;2.18;100.00
62703;BME280;66022;50.448;18.122;2023-11-21T22:34:49;99410.21;;;2.22;100.00
62703;BME280;66022;50.448;18.122;2023-11-21T22:39:03;99414.76;;;2.22;100.00
62703;BME280;66022;50.448;18.122;2023-11-21T22:43:17;99418.27;;;2.23;100.00
62703;BME280;66022;50.448;18.122;2023-11-21T22:47:31;99422.80;;;2.22;100.00
62703;BME280;66022;50.448;18.122;2023-11-21T22:51:45;99426.67;;;2.21;100.00
62703;BME280;66022;50.448;18.122;2023-11-21T22:55:59;99431.48;;;2.20;100.00
62703;BME280;66022;50.448;18.122;2023-11-21T23:00:13;99435.30;;;2.14;100.00
62703;BME280;66022;50.448;18.122;2023-11-21T23:04:28;99438.84;;;2.13;100.00
62703;BME280;66022;50.448;18.122;2023-11-21T23:08:41;99442.85;;;2.09;100.00
62703;BME280;66022;50.448;18.122;2023-11-21T23:12:55;99448.81;;;2.10;100.00
62703;BME280;66022;50.448;18.122;2023-11-21T23:17:09;99455.02;;;2.09;100.00